X  Sluiten METAR luchtvaart weer gegevens      EHGR Gilze Rijen Air Base
Temperatuur
16°C Temperatuur
13°C Dauwpunt
83% Vochtigheid



Wind
14 KM/U
9 MPH
4 M/S
8 KTS



240°
WZW
Huidig weer

Grotendeels bewolkt Grotendeels bewolkt
Luchtdruk 1011.85 (hPa) - 29.88 (inHg)
Zicht 6 (mijl) - 9.7 (km)
Vliegveld
Vliegveld code EHGR

Locatie : Gilze Rijen Air Base
Afstand: 12 (km)

Metar:
EHGR 220655Z AUTO 24008KT 200V290 9999 BKN028 16/13 Q1012 BLU

Tijd: 22-06-2024 06:55 CEST